Time;durP1;ratioP1;P1;durP2;ratioP2;P2;SDS_P1;SDS_P2;PMS_P1;PMS_P2;Temp;Humidity;BMP_temperature;BMP_pressure;BME280_temperature;BME280_humidity;BME280_pressure;Samples;Min_cycle;Max_cycle;Signal;HPM_P1;HPM_P2
2020/04/27 00:00:56;;;;;;;7.1;4.2;;;;;;;10.31;58.18457;94500.75;;;;
2020/04/27 00:01:57;;;;;;;7.1;4.2;;;;;;;10.31;58.18457;94500.75;;;;
2020/04/27 00:02:57;;;;;;;7.1;4.2;;;;;;;10.31;58.18457;94500.75;;;;
2020/04/27 00:03:58;;;;;;;6.1;4.199999;;;;;;;10.34;58.21875;94502.14;;;;
2020/04/27 00:04:58;;;;;;;6.1;4.199999;;;;;;;10.34;58.21875;94502.14;;;;
2020/04/27 00:05:59;;;;;;;6.1;4.199999;;;;;;;10.34;58.21875;94502.14;;;;
2020/04/27 00:06:59;;;;;;;8.95;4.2;;;;;;;10.35;58.30762;94499.19;;;;
2020/04/27 00:08:00;;;;;;;8.95;4.2;;;;;;;10.35;58.30762;94499.19;;;;
2020/04/27 00:09:01;;;;;;;6.7;4.400001;;;;;;;10.39;58.36621;94511.22;;;;
2020/04/27 00:10:01;;;;;;;6.7;4.400001;;;;;;;10.39;58.36621;94511.22;;;;
2020/04/27 00:11:02;;;;;;;6.7;4.400001;;;;;;;10.39;58.36621;94511.22;;;;
2020/04/27 00:12:02;;;;;;;6.7;4.3;;;;;;;10.42;58.52051;94501.26;;;;
2020/04/27 00:13:03;;;;;;;6.7;4.3;;;;;;;10.42;58.52051;94501.26;;;;
2020/04/27 00:14:04;;;;;;;5.7;3.95;;;;;;;10.46;58.55859;94500.92;;;;
2020/04/27 00:15:04;;;;;;;5.7;3.95;;;;;;;10.46;58.55859;94500.92;;;;
2020/04/27 00:16:05;;;;;;;5.7;3.95;;;;;;;10.46;58.55859;94500.92;;;;
2020/04/27 00:17:05;;;;;;;6.849999;4.5;;;;;;;10.52;58.3291;94508.54;;;;
2020/04/27 00:18:06;;;;;;;6.849999;4.5;;;;;;;10.52;58.3291;94508.54;;;;
2020/04/27 00:19:06;;;;;;;6.849999;4.5;;;;;;;10.52;58.3291;94508.54;;;;
2020/04/27 00:20:07;;;;;;;4.9;3.9;;;;;;;10.58;58.09082;94510.21;;;;
2020/04/27 00:21:07;;;;;;;4.9;3.9;;;;;;;10.58;58.09082;94510.21;;;;
2020/04/27 00:22:08;;;;;;;5.949999;3.7;;;;;;;10.64;57.83984;94508.37;;;;
2020/04/27 00:23:08;;;;;;;5.949999;3.7;;;;;;;10.64;57.83984;94508.37;;;;
2020/04/27 00:24:09;;;;;;;5.949999;3.7;;;;;;;10.64;57.83984;94508.37;;;;
2020/04/27 00:25:09;;;;;;;6.749999;4.2;;;;;;;10.69;57.51367;94508.83;;;;
2020/04/27 00:26:10;;;;;;;6.749999;4.2;;;;;;;10.69;57.51367;94508.83;;;;
2020/04/27 00:27:10;;;;;;;5.550001;4.15;;;;;;;10.73;57.29395;94501.33;;;;
2020/04/27 00:28:11;;;;;;;5.550001;4.15;;;;;;;10.73;57.29395;94501.33;;;;
2020/04/27 00:29:11;;;;;;;5.550001;4.15;;;;;;;10.73;57.29395;94501.33;;;;
2020/04/27 00:30:12;;;;;;;5.899999;3.85;;;;;;;10.78;57.08398;94498.26;;;;
2020/04/27 00:31:12;;;;;;;5.899999;3.85;;;;;;;10.78;57.08398;94498.26;;;;
2020/04/27 00:32:13;;;;;;;5.899999;3.85;;;;;;;10.78;57.08398;94498.26;;;;
2020/04/27 00:33:13;;;;;;;5.05;3.65;;;;;;;10.83;56.58398;94503.29;;;;
2020/04/27 00:34:14;;;;;;;5.05;3.65;;;;;;;10.83;56.58398;94503.29;;;;
2020/04/27 00:35:14;;;;;;;4.149999;3.8;;;;;;;10.86;56.40527;94498.75;;;;
2020/04/27 00:36:15;;;;;;;4.149999;3.8;;;;;;;10.86;56.40527;94498.75;;;;
2020/04/27 00:37:15;;;;;;;4.149999;3.8;;;;;;;10.86;56.40527;94498.75;;;;
2020/04/27 00:38:16;;;;;;;4.85;3.85;;;;;;;10.89;56.20508;94500.39;;;;
2020/04/27 00:39:16;;;;;;;4.85;3.85;;;;;;;10.89;56.20508;94500.39;;;;
2020/04/27 00:40:17;;;;;;;4.85;3.85;;;;;;;10.89;56.20508;94500.39;;;;
2020/04/27 00:41:18;;;;;;;4.75;3.65;;;;;;;10.93;55.98438;94505.69;;;;
2020/04/27 00:42:18;;;;;;;4.75;3.65;;;;;;;10.93;55.98438;94505.69;;;;
2020/04/27 00:43:19;;;;;;;4.4;3.95;;;;;;;10.95;55.77246;94499.34;;;;
2020/04/27 00:44:19;;;;;;;4.4;3.95;;;;;;;10.95;55.77246;94499.34;;;;
2020/04/27 00:45:20;;;;;;;4.4;3.95;;;;;;;10.95;55.77246;94499.34;;;;
2020/04/27 00:46:20;;;;;;;4.599999;3.7;;;;;;;10.98;55.44238;94500.2;;;;
2020/04/27 00:47:21;;;;;;;4.599999;3.7;;;;;;;10.98;55.44238;94500.2;;;;
2020/04/27 00:48:21;;;;;;;5.35;3.6;;;;;;;11.01;55.23926;94498.86;;;;
2020/04/27 00:49:22;;;;;;;5.35;3.6;;;;;;;11.01;55.23926;94498.86;;;;
2020/04/27 00:50:22;;;;;;;5.35;3.6;;;;;;;11.01;55.23926;94498.86;;;;
2020/04/27 00:51:23;;;;;;;5.800001;3.9;;;;;;;11.04;55.14746;94499.16;;;;
2020/04/27 00:52:23;;;;;;;5.800001;3.9;;;;;;;11.04;55.14746;94499.16;;;;
2020/04/27 00:53:24;;;;;;;5.800001;3.9;;;;;;;11.04;55.14746;94499.16;;;;
2020/04/27 00:54:24;;;;;;;4.55;3.6;;;;;;;11.06;55.24707;94495.25;;;;
2020/04/27 00:55:24;;;;;;;4.55;3.6;;;;;;;11.06;55.24707;94495.25;;;;
2020/04/27 00:56:25;;;;;;;4.55;3.6;;;;;;;11.11;55.2627;94498.14;;;;
2020/04/27 00:57:25;;;;;;;4.55;3.6;;;;;;;11.11;55.2627;94498.14;;;;
2020/04/27 00:58:26;;;;;;;4.55;3.6;;;;;;;11.11;55.2627;94498.14;;;;
2020/04/27 00:59:38;;;;;;;4.400001;3.6;;;;;;;11.13;55.26563;94498.58;;;;
2020/04/27 01:00:53;;;;;;;4.400001;3.6;;;;;;;11.13;55.26563;94498.58;;;;
2020/04/27 01:07:04;;;;;;;5.6;3.65;;;;;;;11.21;54.74902;94509.83;;;;
2020/04/27 01:08:05;;;;;;;5.6;3.65;;;;;;;11.21;54.74902;94509.83;;;;
2020/04/27 01:09:05;;;;;;;5.6;3.65;;;;;;;11.21;54.74902;94509.83;;;;
2020/04/27 01:10:17;;;;;;;4;3.65;;;;;;;11.24;54.64453;94516.47;;;;
2020/04/27 01:11:18;;;;;;;4;3.65;;;;;;;11.24;54.64453;94516.47;;;;
2020/04/27 01:12:18;;;;;;;4.1;3.6;;;;;;;11.27;54.32617;94521.38;;;;
2020/04/27 01:13:19;;;;;;;4.1;3.6;;;;;;;11.27;54.32617;94521.38;;;;
2020/04/27 01:14:19;;;;;;;4.1;3.6;;;;;;;11.27;54.32617;94521.38;;;;
2020/04/27 01:15:20;;;;;;;4.2;3.8;;;;;;;11.29;54.18652;94526.53;;;;
2020/04/27 01:16:20;;;;;;;4.2;3.8;;;;;;;11.29;54.18652;94526.53;;;;
2020/04/27 01:17:21;;;;;;;5.400001;4.1;;;;;;;11.32;54.1582;94525.58;;;;
2020/04/27 01:18:21;;;;;;;5.400001;4.1;;;;;;;11.32;54.1582;94525.58;;;;
2020/04/27 01:19:22;;;;;;;5.400001;4.1;;;;;;;11.32;54.1582;94525.58;;;;
2020/04/27 01:20:23;;;;;;;5.25;3.6;;;;;;;11.34;54.0752;94536.83;;;;
2020/04/27 01:21:24;;;;;;;5.25;3.6;;;;;;;11.34;54.0752;94536.83;;;;
2020/04/27 01:22:24;;;;;;;5.25;3.6;;;;;;;11.34;54.0752;94536.83;;;;
2020/04/27 01:23:25;;;;;;;3.8;3.3;;;;;;;11.38;53.9502;94536.19;;;;
2020/04/27 01:24:25;;;;;;;3.8;3.3;;;;;;;11.38;53.9502;94536.19;;;;
2020/04/27 01:25:25;;;;;;;5.2;4.1;;;;;;;11.41;53.87793;94533.91;;;;
2020/04/27 01:26:26;;;;;;;5.2;4.1;;;;;;;11.41;53.87793;94533.91;;;;
2020/04/27 01:27:26;;;;;;;5.2;4.1;;;;;;;11.41;53.87793;94533.91;;;;
2020/04/27 01:28:27;;;;;;;5.2;4;;;;;;;11.45;54.02344;94537.72;;;;
2020/04/27 01:29:27;;;;;;;5.2;4;;;;;;;11.45;54.02344;94537.72;;;;
2020/04/27 01:30:28;;;;;;;5.2;4;;;;;;;11.45;54.02344;94537.72;;;;
2020/04/27 01:31:28;;;;;;;5.799999;3.85;;;;;;;11.48;54.37305;94543.02;;;;
2020/04/27 01:32:29;;;;;;;5.799999;3.85;;;;;;;11.48;54.37305;94543.02;;;;
2020/04/27 01:33:29;;;;;;;5.799999;3.85;;;;;;;11.48;54.37305;94543.02;;;;
2020/04/27 01:34:30;;;;;;;5.799999;3.85;;;;;;;11.48;54.37305;94543.02;;;;
2020/04/27 01:35:30;;;;;;;5.799999;3.85;;;;;;;11.48;54.37305;94543.02;;;;
2020/04/27 01:36:31;;;;;;;5.799999;3.85;;;;;;;11.48;54.37305;94543.02;;;;
2020/04/27 01:37:31;;;;;;;5.799999;3.85;;;;;;;11.48;54.37305;94543.02;;;;
2020/04/27 01:38:32;;;;;;;5.799999;3.85;;;;;;;11.48;54.37305;94543.02;;;;
2020/04/27 01:39:32;;;;;;;5.799999;3.85;;;;;;;11.48;54.37305;94543.02;;;;
2020/04/27 01:40:32;;;;;;;5.799999;3.85;;;;;;;11.48;54.37305;94543.02;;;;
2020/04/27 01:41:33;;;;;;;5.699999;5.199999;;;;;;;11.17;54.0957;94544.25;;;;
2020/04/27 01:42:33;;;;;;;5.699999;5.199999;;;;;;;11.17;54.0957;94544.25;;;;
2020/04/27 01:43:34;;;;;;;5.699999;5.199999;;;;;;;11.17;54.0957;94544.25;;;;
2020/04/27 01:44:34;;;;;;;5.5;4.95;;;;;;;11.15;55.87207;94551.93;;;;
2020/04/27 01:45:35;;;;;;;5.5;4.95;;;;;;;11.15;55.87207;94551.93;;;;
2020/04/27 01:46:35;;;;;;;5.700001;5;;;;;;;11.18;57.13574;94551.83;;;;
2020/04/27 01:47:36;;;;;;;5.700001;5;;;;;;;11.18;57.13574;94551.83;;;;
2020/04/27 01:48:36;;;;;;;5.700001;5;;;;;;;11.18;57.13574;94551.83;;;;
2020/04/27 01:49:36;;;;;;;6.5;5.4;;;;;;;11.2;57.87207;94546.04;;;;
2020/04/27 01:50:37;;;;;;;6.5;5.4;;;;;;;11.2;57.87207;94546.04;;;;
2020/04/27 01:51:37;;;;;;;6.5;5.4;;;;;;;11.2;57.87207;94546.04;;;;
2020/04/27 01:52:38;;;;;;;6.5;5.4;;;;;;;11.2;57.87207;94546.04;;;;
2020/04/27 01:53:38;;;;;;;6.5;5.4;;;;;;;11.2;57.87207;94546.04;;;;
2020/04/27 01:54:39;;;;;;;6.5;5.4;;;;;;;11.2;57.87207;94546.04;;;;
2020/04/27 01:55:39;;;;;;;6.5;5.4;;;;;;;11.2;57.87207;94546.04;;;;
2020/04/27 01:56:40;;;;;;;6.5;5.4;;;;;;;11.2;57.87207;94546.04;;;;
2020/04/27 01:57:40;;;;;;;6.5;5.4;;;;;;;11.2;57.87207;94546.04;;;;
2020/04/27 01:58:41;;;;;;;6.5;5.4;;;;;;;11.2;57.87207;94546.04;;;;
2020/04/27 01:59:41;;;;;;;6.349999;5.75;;;;;;;10.88;57.0332;94546.98;;;;
2020/04/27 02:01:28;;;;;;;6.349999;5.75;;;;;;;10.88;57.0332;94546.98;;;;
2020/04/27 02:02:28;;;;;;;7.7;5.649999;;;;;;;10.87;58.83984;94553.02;;;;
2020/04/27 02:03:29;;;;;;;7.7;5.649999;;;;;;;10.87;58.83984;94553.02;;;;
2020/04/27 02:04:29;;;;;;;7.7;5.649999;;;;;;;10.87;58.83984;94553.02;;;;
2020/04/27 02:05:30;;;;;;;7.7;5.649999;;;;;;;10.87;58.83984;94553.02;;;;
2020/04/27 02:06:30;;;;;;;7.7;5.649999;;;;;;;10.87;58.83984;94553.02;;;;
2020/04/27 02:07:30;;;;;;;7.7;5.649999;;;;;;;10.87;58.83984;94553.02;;;;
2020/04/27 02:08:31;;;;;;;7.7;5.649999;;;;;;;10.87;58.83984;94553.02;;;;
2020/04/27 02:09:32;;;;;;;7.7;5.649999;;;;;;;10.87;58.83984;94553.02;;;;
2020/04/27 02:10:32;;;;;;;7.7;5.649999;;;;;;;10.87;58.83984;94553.02;;;;
2020/04/27 02:11:33;;;;;;;7.7;5.649999;;;;;;;10.87;58.83984;94553.02;;;;
2020/04/27 02:12:33;;;;;;;7.7;5.649999;;;;;;;10.87;58.83984;94553.02;;;;
2020/04/27 02:13:33;;;;;;;7.6;6.5;;;;;;;10.63;58.65527;94552.12;;;;
2020/04/27 02:14:34;;;;;;;7.6;6.5;;;;;;;10.63;58.65527;94552.12;;;;
2020/04/27 02:15:34;;;;;;;7.650001;6.3;;;;;;;10.63;60.69824;94554.41;;;;
2020/04/27 02:16:38;;;;;;;7.650001;6.3;;;;;;;10.63;60.69824;94554.41;;;;
2020/04/27 02:17:38;;;;;;;7.650001;6.3;;;;;;;10.63;60.69824;94554.41;;;;
2020/04/27 02:18:40;;;;;;;7.6;6.799999;;;;;;;10.68;62.31738;94550.83;;;;
2020/04/27 02:19:44;;;;;;;7.6;6.799999;;;;;;;10.68;62.31738;94550.83;;;;
2020/04/27 02:20:45;;;;;;;7.099999;6.250001;;;;;;;10.72;63.51465;94544.23;;;;
2020/04/27 02:21:50;;;;;;;7.099999;6.250001;;;;;;;10.72;63.51465;94544.23;;;;
2020/04/27 02:22:51;;;;;;;7.099999;6.250001;;;;;;;10.72;63.51465;94544.23;;;;
2020/04/27 02:23:52;;;;;;;7.099999;6.250001;;;;;;;10.72;63.51465;94544.23;;;;
2020/04/27 02:24:52;;;;;;;7.099999;6.250001;;;;;;;10.72;63.51465;94544.23;;;;
2020/04/27 02:25:53;;;;;;;7.099999;6.250001;;;;;;;10.72;63.51465;94544.23;;;;
2020/04/27 02:26:53;;;;;;;7.099999;6.250001;;;;;;;10.72;63.51465;94544.23;;;;
2020/04/27 02:27:54;;;;;;;7.099999;6.250001;;;;;;;10.72;63.51465;94544.23;;;;
2020/04/27 02:28:54;;;;;;;7.099999;6.250001;;;;;;;10.72;63.51465;94544.23;;;;
2020/04/27 02:29:55;;;;;;;7.099999;6.250001;;;;;;;10.72;63.51465;94544.23;;;;
2020/04/27 02:32:04;;;;;;;7.099999;6.250001;;;;;;;10.72;63.51465;94544.23;;;;
2020/04/27 02:33:05;;;;;;;7.45;6.649999;;;;;;;10.49;61.91309;94541.42;;;;
2020/04/27 02:34:05;;;;;;;9.049999;7.249999;;;;;;;10.51;63.75195;94543.33;;;;
2020/04/27 02:35:06;;;;;;;9.049999;7.249999;;;;;;;10.51;63.75195;94543.33;;;;
2020/04/27 02:36:06;;;;;;;9.049999;7.249999;;;;;;;10.51;63.75195;94543.33;;;;
2020/04/27 02:37:07;;;;;;;9.049999;7.249999;;;;;;;10.51;63.75195;94543.33;;;;
2020/04/27 02:38:10;;;;;;;9.049999;7.249999;;;;;;;10.51;63.75195;94543.33;;;;
2020/04/27 02:39:11;;;;;;;9.049999;7.249999;;;;;;;10.51;63.75195;94543.33;;;;
2020/04/27 02:40:11;;;;;;;9.049999;7.249999;;;;;;;10.51;63.75195;94543.33;;;;
2020/04/27 02:41:11;;;;;;;9.049999;7.249999;;;;;;;10.51;63.75195;94543.33;;;;
2020/04/27 02:42:12;;;;;;;9.049999;7.249999;;;;;;;10.51;63.75195;94543.33;;;;
2020/04/27 02:43:13;;;;;;;9.049999;7.249999;;;;;;;10.51;63.75195;94543.33;;;;
2020/04/27 02:44:14;;;;;;;9.049999;7.249999;;;;;;;10.51;63.75195;94543.33;;;;
2020/04/27 02:45:14;;;;;;;7.9;6.7;;;;;;;10.45;62.99316;94542.46;;;;
2020/04/27 02:46:15;;;;;;;7.9;6.7;;;;;;;10.45;62.99316;94542.46;;;;
2020/04/27 02:47:15;;;;;;;7.400001;6.699998;;;;;;;10.51;65.01953;94553.61;;;;
2020/04/27 02:48:16;;;;;;;7.400001;6.699998;;;;;;;10.51;65.01953;94553.61;;;;
2020/04/27 02:49:16;;;;;;;7.400001;6.699998;;;;;;;10.51;65.01953;94553.61;;;;
2020/04/27 02:50:16;;;;;;;7.400001;6.699998;;;;;;;10.51;65.01953;94553.61;;;;
2020/04/27 02:51:17;;;;;;;7.400001;6.699998;;;;;;;10.51;65.01953;94553.61;;;;
2020/04/27 02:52:17;;;;;;;7.400001;6.699998;;;;;;;10.51;65.01953;94553.61;;;;
2020/04/27 02:53:18;;;;;;;7.400001;6.699998;;;;;;;10.51;65.01953;94553.61;;;;
2020/04/27 02:54:18;;;;;;;7.400001;6.699998;;;;;;;10.51;65.01953;94553.61;;;;
2020/04/27 02:55:19;;;;;;;7.400001;6.699998;;;;;;;10.51;65.01953;94553.61;;;;
2020/04/27 02:56:20;;;;;;;7.400001;6.699998;;;;;;;10.51;65.01953;94553.61;;;;
2020/04/27 02:57:20;;;;;;;7.400001;6.699998;;;;;;;10.51;65.01953;94553.61;;;;
2020/04/27 02:58:21;;;;;;;8.549999;6.550001;;;;;;;10.47;64.04785;94537.62;;;;
2020/04/27 02:59:21;;;;;;;8.549999;6.550001;;;;;;;10.47;64.04785;94537.62;;;;
2020/04/27 03:00:22;;;;;;;8.549999;6.550001;;;;;;;10.47;64.04785;94537.62;;;;
2020/04/27 03:01:22;;;;;;;7.55;6.849999;;;;;;;10.52;65.88867;94550.37;;;;
2020/04/27 03:02:23;;;;;;;7.55;6.849999;;;;;;;10.52;65.88867;94550.37;;;;
2020/04/27 03:03:23;;;;;;;7.55;6.849999;;;;;;;10.52;65.88867;94550.37;;;;
2020/04/27 03:04:24;;;;;;;7.55;6.849999;;;;;;;10.52;65.88867;94550.37;;;;
2020/04/27 03:05:24;;;;;;;7.55;6.849999;;;;;;;10.52;65.88867;94550.37;;;;
2020/04/27 03:06:25;;;;;;;7.55;6.849999;;;;;;;10.52;65.88867;94550.37;;;;
2020/04/27 03:07:25;;;;;;;7.55;6.849999;;;;;;;10.52;65.88867;94550.37;;;;
2020/04/27 03:08:26;;;;;;;7.55;6.849999;;;;;;;10.52;65.88867;94550.37;;;;
2020/04/27 03:09:26;;;;;;;7.55;6.849999;;;;;;;10.52;65.88867;94550.37;;;;
2020/04/27 03:10:27;;;;;;;7.55;6.849999;;;;;;;10.52;65.88867;94550.37;;;;
2020/04/27 03:11:27;;;;;;;7.799999;6.750001;;;;;;;10.48;64.90625;94560.97;;;;
2020/04/27 03:12:27;;;;;;;7.799999;6.750001;;;;;;;10.48;64.90625;94560.97;;;;
2020/04/27 03:13:28;;;;;;;7.799999;6.750001;;;;;;;10.48;64.90625;94560.97;;;;
2020/04/27 03:14:28;;;;;;;7.15;6.45;;;;;;;10.54;66.37402;94566.72;;;;
2020/04/27 03:15:33;;;;;;;7.15;6.45;;;;;;;10.54;66.37402;94566.72;;;;
2020/04/27 03:16:34;;;;;;;8.4;6.9;;;;;;;10.64;67.64453;94566.41;;;;
2020/04/27 03:17:36;;;;;;;8.4;6.9;;;;;;;10.64;67.64453;94566.41;;;;
2020/04/27 03:18:42;;;;;;;8.4;6.9;;;;;;;10.64;67.64453;94566.41;;;;
2020/04/27 03:25:00;;;;;;;7.55;6.799999;;;;;;;10.73;68.77441;94565.72;;;;
2020/04/27 03:31:23;;;;;;;8.349999;6.550001;;;;;;;10.66;66.7998;94572.8;;;;
2020/04/27 03:32:39;;;;;;;8.85;6.75;;;;;;;10.7;68.25391;94566.77;;;;
2020/04/27 03:33:49;;;;;;;8.85;6.75;;;;;;;10.7;68.25391;94566.77;;;;
2020/04/27 03:35:04;;;;;;;8.85;6.75;;;;;;;10.7;68.25391;94566.77;;;;
2020/04/27 03:36:14;;;;;;;8.85;6.75;;;;;;;10.7;68.25391;94566.77;;;;
2020/04/27 03:37:39;;;;;;;8.85;6.75;;;;;;;10.7;68.25391;94566.77;;;;
2020/04/27 03:38:50;;;;;;;8.85;6.75;;;;;;;10.7;68.25391;94566.77;;;;
2020/04/27 03:40:00;;;;;;;8.85;6.75;;;;;;;10.7;68.25391;94566.77;;;;
2020/04/27 03:41:09;;;;;;;8.85;6.75;;;;;;;10.7;68.25391;94566.77;;;;
2020/04/27 03:42:15;;;;;;;8.85;6.75;;;;;;;10.7;68.25391;94566.77;;;;
2020/04/27 03:44:26;;;;;;;7.4;6.7;;;;;;;10.66;66.85352;94571.44;;;;
2020/04/27 03:45:33;;;;;;;7.4;6.7;;;;;;;10.66;66.85352;94571.44;;;;
2020/04/27 03:46:37;;;;;;;7.4;6.7;;;;;;;10.66;66.85352;94571.44;;;;
2020/04/27 03:47:38;;;;;;;7.4;6.7;;;;;;;10.66;66.85352;94571.44;;;;
2020/04/27 03:48:38;;;;;;;7.4;6.7;;;;;;;10.66;66.85352;94571.44;;;;
2020/04/27 03:49:39;;;;;;;7.4;6.7;;;;;;;10.66;66.85352;94571.44;;;;
2020/04/27 03:50:39;;;;;;;7.4;6.7;;;;;;;10.66;66.85352;94571.44;;;;
2020/04/27 03:51:40;;;;;;;7.4;6.7;;;;;;;10.66;66.85352;94571.44;;;;
2020/04/27 03:52:40;;;;;;;7.4;6.7;;;;;;;10.66;66.85352;94571.44;;;;
2020/04/27 03:53:41;;;;;;;7.5;6.8;;;;;;;10.7;66.4209;94567.97;;;;
2020/04/27 03:54:41;;;;;;;7.5;6.8;;;;;;;10.7;66.4209;94567.97;;;;
2020/04/27 03:55:42;;;;;;;7.5;6.8;;;;;;;10.7;66.4209;94567.97;;;;
2020/04/27 03:56:42;;;;;;;7.5;6.8;;;;;;;10.7;66.4209;94567.97;;;;
2020/04/27 03:57:43;;;;;;;7.5;6.8;;;;;;;10.7;66.4209;94567.97;;;;
2020/04/27 03:58:43;;;;;;;7.5;6.8;;;;;;;10.7;66.4209;94567.97;;;;
2020/04/27 03:59:44;;;;;;;7.5;6.8;;;;;;;10.7;66.4209;94567.97;;;;
2020/04/27 04:00:44;;;;;;;7.5;6.8;;;;;;;10.7;66.4209;94567.97;;;;
2020/04/27 04:01:44;;;;;;;7.5;6.8;;;;;;;10.7;66.4209;94567.97;;;;
2020/04/27 04:02:45;;;;;;;7.5;6.8;;;;;;;10.7;66.4209;94567.97;;;;
2020/04/27 04:03:45;;;;;;;7.5;6.8;;;;;;;10.7;66.4209;94567.97;;;;
2020/04/27 04:04:46;;;;;;;8.650001;7.250001;;;;;;;10.74;66.33008;94582.74;;;;
2020/04/27 04:05:46;;;;;;;8.650001;7.250001;;;;;;;10.74;66.33008;94582.74;;;;
2020/04/27 04:06:47;;;;;;;8.6;7.199999;;;;;;;10.82;68.16504;94580.92;;;;
2020/04/27 04:07:47;;;;;;;8.6;7.199999;;;;;;;10.82;68.16504;94580.92;;;;
2020/04/27 04:08:49;;;;;;;8.6;7.199999;;;;;;;10.82;68.16504;94580.92;;;;
2020/04/27 04:09:49;;;;;;;8.6;7.199999;;;;;;;10.82;68.16504;94580.92;;;;
2020/04/27 04:10:50;;;;;;;8.6;7.199999;;;;;;;10.82;68.16504;94580.92;;;;
2020/04/27 04:11:50;;;;;;;8.6;7.199999;;;;;;;10.82;68.16504;94580.92;;;;
2020/04/27 04:12:51;;;;;;;8.6;7.199999;;;;;;;10.82;68.16504;94580.92;;;;
2020/04/27 04:13:51;;;;;;;8.6;7.199999;;;;;;;10.82;68.16504;94580.92;;;;
2020/04/27 04:14:52;;;;;;;8.6;7.199999;;;;;;;10.82;68.16504;94580.92;;;;
2020/04/27 04:15:52;;;;;;;8.6;7.199999;;;;;;;10.82;68.16504;94580.92;;;;
2020/04/27 04:16:53;;;;;;;8.6;7.199999;;;;;;;10.82;68.16504;94580.92;;;;
2020/04/27 04:17:53;;;;;;;7.850001;7;;;;;;;10.88;67.32813;94594.23;;;;
2020/04/27 04:18:54;;;;;;;7.850001;7;;;;;;;10.88;67.32813;94594.23;;;;
2020/04/27 04:19:54;;;;;;;8.25;7.45;;;;;;;10.94;68.97852;94587.8;;;;
2020/04/27 04:20:54;;;;;;;8.25;7.45;;;;;;;10.94;68.97852;94587.8;;;;
2020/04/27 04:21:55;;;;;;;8.25;7.45;;;;;;;10.94;68.97852;94587.8;;;;
2020/04/27 04:22:55;;;;;;;8.25;7.45;;;;;;;10.94;68.97852;94587.8;;;;
2020/04/27 04:23:56;;;;;;;8.25;7.45;;;;;;;10.94;68.97852;94587.8;;;;
2020/04/27 04:24:56;;;;;;;8.25;7.45;;;;;;;10.94;68.97852;94587.8;;;;
2020/04/27 04:25:57;;;;;;;8.25;7.45;;;;;;;10.94;68.97852;94587.8;;;;
2020/04/27 04:26:57;;;;;;;8.25;7.45;;;;;;;10.94;68.97852;94587.8;;;;
2020/04/27 04:27:58;;;;;;;8.25;7.45;;;;;;;10.94;68.97852;94587.8;;;;
2020/04/27 04:28:58;;;;;;;8.25;7.45;;;;;;;10.94;68.97852;94587.8;;;;
2020/04/27 04:29:59;;;;;;;8.25;7.45;;;;;;;10.94;68.97852;94587.8;;;;
2020/04/27 04:30:59;;;;;;;7.650001;6.849999;;;;;;;10.97;68.02832;94588.25;;;;
2020/04/27 04:32:00;;;;;;;7.650001;6.849999;;;;;;;10.97;68.02832;94588.25;;;;
2020/04/27 04:33:00;;;;;;;7.650001;6.849999;;;;;;;10.97;68.02832;94588.25;;;;
2020/04/27 04:34:00;;;;;;;7.650001;6.849999;;;;;;;10.97;68.02832;94588.25;;;;
2020/04/27 04:35:01;;;;;;;7.650001;6.849999;;;;;;;10.97;68.02832;94588.25;;;;
2020/04/27 04:36:02;;;;;;;7.650001;6.849999;;;;;;;10.97;68.02832;94588.25;;;;
2020/04/27 04:37:02;;;;;;;7.650001;6.849999;;;;;;;10.97;68.02832;94588.25;;;;
2020/04/27 04:38:03;;;;;;;7.650001;6.849999;;;;;;;10.97;68.02832;94588.25;;;;
2020/04/27 04:39:03;;;;;;;7.650001;6.849999;;;;;;;10.97;68.02832;94588.25;;;;
2020/04/27 04:40:04;;;;;;;7.650001;6.849999;;;;;;;10.97;68.02832;94588.25;;;;
2020/04/27 04:41:06;;;;;;;8.35;7.450001;;;;;;;11.07;67.60449;94586.05;;;;
2020/04/27 04:42:06;;;;;;;8.35;7.450001;;;;;;;11.07;67.60449;94586.05;;;;
2020/04/27 04:43:07;;;;;;;8.35;7.450001;;;;;;;11.07;67.60449;94586.05;;;;
2020/04/27 04:44:07;;;;;;;8.35;7.450001;;;;;;;11.07;67.60449;94586.05;;;;
2020/04/27 04:45:08;;;;;;;8.35;7.450001;;;;;;;11.07;67.60449;94586.05;;;;
2020/04/27 04:46:08;;;;;;;8.35;7.450001;;;;;;;11.07;67.60449;94586.05;;;;
2020/04/27 04:47:09;;;;;;;8.35;7.450001;;;;;;;11.07;67.60449;94586.05;;;;
2020/04/27 04:48:09;;;;;;;8.35;7.450001;;;;;;;11.07;67.60449;94586.05;;;;
2020/04/27 04:49:09;;;;;;;8.35;7.450001;;;;;;;11.07;67.60449;94586.05;;;;
2020/04/27 04:50:10;;;;;;;8.35;7.450001;;;;;;;11.07;67.60449;94586.05;;;;
2020/04/27 04:51:10;;;;;;;8.35;7.450001;;;;;;;11.07;67.60449;94586.05;;;;
2020/04/27 04:52:11;;;;;;;8;7.199999;;;;;;;11.25;67.4707;94611.35;;;;
2020/04/27 04:53:11;;;;;;;8;7.199999;;;;;;;11.25;67.4707;94611.35;;;;
2020/04/27 04:54:12;;;;;;;8;7.199999;;;;;;;11.25;67.4707;94611.35;;;;
2020/04/27 04:55:12;;;;;;;9.15;7.85;;;;;;;11.35;68.99023;94605.24;;;;
2020/04/27 04:56:13;;;;;;;9.15;7.85;;;;;;;11.35;68.99023;94605.24;;;;
2020/04/27 04:57:13;;;;;;;9.15;7.85;;;;;;;11.35;68.99023;94605.24;;;;
2020/04/27 04:58:14;;;;;;;9.15;7.85;;;;;;;11.35;68.99023;94605.24;;;;
2020/04/27 04:59:14;;;;;;;9.15;7.85;;;;;;;11.35;68.99023;94605.24;;;;
2020/04/27 05:00:15;;;;;;;9.15;7.85;;;;;;;11.35;68.99023;94605.24;;;;
2020/04/27 05:01:15;;;;;;;9.15;7.85;;;;;;;11.35;68.99023;94605.24;;;;
2020/04/27 05:02:16;;;;;;;9.15;7.85;;;;;;;11.35;68.99023;94605.24;;;;
2020/04/27 05:03:16;;;;;;;9.15;7.85;;;;;;;11.35;68.99023;94605.24;;;;
2020/04/27 05:04:17;;;;;;;9.15;7.85;;;;;;;11.35;68.99023;94605.24;;;;
2020/04/27 05:05:17;;;;;;;8.799999;7.6;;;;;;;11.37;68.00488;94595.78;;;;
2020/04/27 05:06:17;;;;;;;8.799999;7.6;;;;;;;11.37;68.00488;94595.78;;;;
2020/04/27 05:07:18;;;;;;;8.799999;7.6;;;;;;;11.37;68.00488;94595.78;;;;
2020/04/27 05:08:18;;;;;;;8.65;7.849999;;;;;;;11.42;69.75195;94601.22;;;;
2020/04/27 05:09:19;;;;;;;8.65;7.849999;;;;;;;11.42;69.75195;94601.22;;;;
2020/04/27 05:10:19;;;;;;;8.65;7.849999;;;;;;;11.42;69.75195;94601.22;;;;
2020/04/27 05:11:20;;;;;;;8.65;7.849999;;;;;;;11.42;69.75195;94601.22;;;;
2020/04/27 05:12:20;;;;;;;8.65;7.849999;;;;;;;11.42;69.75195;94601.22;;;;
2020/04/27 05:13:21;;;;;;;8.65;7.849999;;;;;;;11.42;69.75195;94601.22;;;;
2020/04/27 05:14:21;;;;;;;8.65;7.849999;;;;;;;11.42;69.75195;94601.22;;;;
2020/04/27 05:15:21;;;;;;;8.65;7.849999;;;;;;;11.42;69.75195;94601.22;;;;
2020/04/27 05:16:22;;;;;;;8.65;7.849999;;;;;;;11.42;69.75195;94601.22;;;;
2020/04/27 05:17:22;;;;;;;8.65;7.849999;;;;;;;11.42;69.75195;94601.22;;;;
2020/04/27 05:18:23;;;;;;;8.75;7.85;;;;;;;11.61;68.86914;94580.95;;;;
2020/04/27 05:19:23;;;;;;;8.75;7.85;;;;;;;11.61;68.86914;94580.95;;;;
2020/04/27 05:20:24;;;;;;;8.75;7.85;;;;;;;11.61;68.86914;94580.95;;;;
2020/04/27 05:21:24;;;;;;;8.950001;8.1;;;;;;;11.78;70.37891;94583.01;;;;
2020/04/27 05:22:24;;;;;;;8.950001;8.1;;;;;;;11.78;70.37891;94583.01;;;;
2020/04/27 05:23:25;;;;;;;8.950001;8.1;;;;;;;11.78;70.37891;94583.01;;;;
2020/04/27 05:24:25;;;;;;;8.950001;8.1;;;;;;;11.78;70.37891;94583.01;;;;
2020/04/27 05:25:26;;;;;;;8.950001;8.1;;;;;;;11.78;70.37891;94583.01;;;;
2020/04/27 05:26:26;;;;;;;8.950001;8.1;;;;;;;11.78;70.37891;94583.01;;;;
2020/04/27 05:27:27;;;;;;;8.950001;8.1;;;;;;;11.78;70.37891;94583.01;;;;
2020/04/27 05:28:27;;;;;;;8.950001;8.1;;;;;;;11.78;70.37891;94583.01;;;;
2020/04/27 05:29:28;;;;;;;8.950001;8.1;;;;;;;11.78;70.37891;94583.01;;;;
2020/04/27 05:30:28;;;;;;;8.950001;8.1;;;;;;;11.78;70.37891;94583.01;;;;
2020/04/27 05:31:29;;;;;;;8;7.3;;;;;;;12.34;68.54395;94610.66;;;;
2020/04/27 05:32:29;;;;;;;8;7.3;;;;;;;12.34;68.54395;94610.66;;;;
2020/04/27 05:33:29;;;;;;;8;7.3;;;;;;;12.34;68.54395;94610.66;;;;
2020/04/27 05:34:30;;;;;;;8.899999;8.000002;;;;;;;12.51;70.00195;94627.56;;;;
2020/04/27 05:35:31;;;;;;;8.899999;8.000002;;;;;;;12.51;70.00195;94627.56;;;;
2020/04/27 05:36:31;;;;;;;8.899999;8.000002;;;;;;;12.51;70.00195;94627.56;;;;
2020/04/27 05:37:32;;;;;;;8.899999;8.000002;;;;;;;12.51;70.00195;94627.56;;;;
2020/04/27 05:38:32;;;;;;;8.899999;8.000002;;;;;;;12.51;70.00195;94627.56;;;;
2020/04/27 05:39:33;;;;;;;8.899999;8.000002;;;;;;;12.51;70.00195;94627.56;;;;
2020/04/27 05:40:33;;;;;;;8.899999;8.000002;;;;;;;12.51;70.00195;94627.56;;;;
2020/04/27 05:41:33;;;;;;;8.899999;8.000002;;;;;;;12.51;70.00195;94627.56;;;;
2020/04/27 05:42:34;;;;;;;8.899999;8.000002;;;;;;;12.51;70.00195;94627.56;;;;
2020/04/27 05:43:34;;;;;;;8.899999;8.000002;;;;;;;12.51;70.00195;94627.56;;;;
2020/04/27 05:44:35;;;;;;;8.899999;8.000002;;;;;;;12.51;70.00195;94627.56;;;;
2020/04/27 05:45:35;;;;;;;9.099998;7.65;;;;;;;12.68;68.82324;94625.06;;;;
2020/04/27 05:46:36;;;;;;;9.099998;7.65;;;;;;;12.68;68.82324;94625.06;;;;
2020/04/27 05:47:36;;;;;;;8.749999;7.950001;;;;;;;12.81;70.25293;94630.53;;;;
2020/04/27 05:48:37;;;;;;;8.749999;7.950001;;;;;;;12.81;70.25293;94630.53;;;;
2020/04/27 05:49:37;;;;;;;8.749999;7.950001;;;;;;;12.81;70.25293;94630.53;;;;
2020/04/27 05:50:37;;;;;;;8.749999;7.950001;;;;;;;12.81;70.25293;94630.53;;;;
2020/04/27 05:51:38;;;;;;;8.749999;7.950001;;;;;;;12.81;70.25293;94630.53;;;;
2020/04/27 05:52:39;;;;;;;8.749999;7.950001;;;;;;;12.81;70.25293;94630.53;;;;